Terminal Aerodrome Forecast
Issued by NWS

Home | Current Version | Previous Version | Text Only | Print | Product List | Glossary Off
Versions: 1 2 3 4 5 6 7 8 9 10 11 12 13 14 15 16 17 18 19 20 21 22 23 24 25 26 27 28 29 30 31 32

000
FTUS43 KLOT 310540
TAFORD
TAF
KORD 310540Z 3106/0112 00000KT 3SM BR SKC
     FM310900 00000KT 1SM BR SKC
     FM311300 20003KT P6SM SKC
     FM312100 11006KT P6SM FEW050
     FM010200 19004KT P6SM FEW050=

USA.gov is the U.S. government's official web portal to all federal, state and local government web resources and services.